createdAt,value
2024-05-09T00:00:38.655Z,1.13
2024-05-09T00:01:48.148Z,1.15
2024-05-09T00:02:59.009Z,1.20
2024-05-09T00:04:03.712Z,0.80
2024-05-09T00:05:10.674Z,1.20
2024-05-09T00:06:21.309Z,0.90
2024-05-09T00:07:23.252Z,1.00
2024-05-09T00:08:28.312Z,0.98
2024-05-09T00:09:31.521Z,0.95
2024-05-09T00:10:38.584Z,0.90
2024-05-09T00:11:41.931Z,1.00
2024-05-09T00:12:49.253Z,0.85
2024-05-09T00:13:53.548Z,1.08
2024-05-09T00:15:13.443Z,1.00
2024-05-09T00:16:22.923Z,1.15
2024-05-09T00:17:31.543Z,1.20
2024-05-09T00:18:39.937Z,1.13
2024-05-09T00:19:49.302Z,1.13
2024-05-09T00:21:00.994Z,1.05
2024-05-09T00:22:09.345Z,1.08
2024-05-09T00:23:14.396Z,1.40
2024-05-09T00:24:42.061Z,0.85
2024-05-09T00:25:47.178Z,1.30
2024-05-09T00:27:08.338Z,1.20
2024-05-09T00:28:17.002Z,1.13
2024-05-09T00:29:20.502Z,1.02
2024-05-09T00:30:31.593Z,1.15
2024-05-09T00:31:42.693Z,1.10
2024-05-09T00:32:47.616Z,1.17
2024-05-09T00:33:51.282Z,1.00
2024-05-09T00:34:53.452Z,1.10
2024-05-09T00:35:59.374Z,1.13
2024-05-09T00:37:01.443Z,1.13
2024-05-09T00:38:06.008Z,0.90
2024-05-09T00:39:11.007Z,1.25
2024-05-09T00:40:22.488Z,0.93
2024-05-09T00:41:33.465Z,0.93
2024-05-09T00:42:53.051Z,1.10
2024-05-09T00:43:55.078Z,0.90
2024-05-09T00:44:59.714Z,0.80
2024-05-09T00:46:11.776Z,1.20
2024-05-09T00:47:18.230Z,1.25
2024-05-09T00:48:48.704Z,1.40
2024-05-09T00:49:56.211Z,1.60
2024-05-09T00:51:01.209Z,1.35
2024-05-09T00:52:16.788Z,1.48
2024-05-09T00:53:25.092Z,1.58
2024-05-09T00:54:36.758Z,1.50
2024-05-09T00:55:39.792Z,1.70
2024-05-09T00:56:53.197Z,1.80
2024-05-09T00:57:58.913Z,1.27
2024-05-09T00:59:10.221Z,1.38
2024-05-09T01:00:26.621Z,1.42
2024-05-09T01:01:41.192Z,1.33
2024-05-09T01:04:20.342Z,1.40
2024-05-09T01:05:27.760Z,1.50
2024-05-09T01:06:40.401Z,1.45
2024-05-09T01:07:46.347Z,1.40
2024-05-09T01:08:48.629Z,1.20
2024-05-09T01:09:53.755Z,1.50
2024-05-09T01:10:58.527Z,1.65
2024-05-09T01:12:00.884Z,1.33
2024-05-09T01:13:15.278Z,1.30
2024-05-09T01:14:18.341Z,1.42
2024-05-09T01:15:23.388Z,1.30
2024-05-09T01:16:27.895Z,0.98
2024-05-09T01:17:36.360Z,1.40
2024-05-09T01:18:41.050Z,1.20
2024-05-09T01:19:50.820Z,1.10
2024-05-09T01:20:55.224Z,1.10
2024-05-09T01:22:04.376Z,1.20
2024-05-09T01:23:09.024Z,1.30
2024-05-09T01:24:24.502Z,1.35
2024-05-09T01:25:30.663Z,1.40
2024-05-09T01:26:32.854Z,1.10
2024-05-09T01:27:42.262Z,1.23
2024-05-09T01:30:20.801Z,1.10
2024-05-09T01:31:27.783Z,1.57
2024-05-09T01:32:30.002Z,1.30
2024-05-09T01:33:36.620Z,1.20
2024-05-09T01:34:44.608Z,1.42
2024-05-09T01:35:53.190Z,1.20
2024-05-09T01:37:21.617Z,1.20
2024-05-09T01:38:31.175Z,1.20
2024-05-09T01:39:35.875Z,1.33
2024-05-09T01:40:40.695Z,1.60
2024-05-09T01:42:28.350Z,1.67
2024-05-09T01:43:51.178Z,1.17
2024-05-09T01:45:00.808Z,1.40
2024-05-09T01:46:12.217Z,1.63
2024-05-09T01:47:16.731Z,1.30
2024-05-09T01:48:18.975Z,1.42
2024-05-09T01:49:21.421Z,1.80
2024-05-09T01:52:03.163Z,1.40
2024-05-09T01:54:23.009Z,1.58
2024-05-09T01:55:26.057Z,1.10
2024-05-09T01:56:29.429Z,1.40
2024-05-09T01:57:36.778Z,1.30
2024-05-09T01:58:41.688Z,1.40
2024-05-09T01:59:44.982Z,1.33
2024-05-09T02:00:57.409Z,1.20
2024-05-09T02:01:59.787Z,1.38
2024-05-09T02:03:04.631Z,1.42
2024-05-09T02:04:10.261Z,1.63
2024-05-09T02:05:22.807Z,1.38
2024-05-09T02:06:55.917Z,1.57
2024-05-09T02:08:09.497Z,1.30
2024-05-09T02:09:27.151Z,1.50
2024-05-09T02:10:33.675Z,1.40
2024-05-09T02:11:46.066Z,1.45
2024-05-09T02:12:53.884Z,1.30
2024-05-09T02:14:03.350Z,1.23
2024-05-09T02:15:10.042Z,1.20
2024-05-09T02:16:15.068Z,1.48
2024-05-09T02:17:17.088Z,1.20
2024-05-09T02:18:23.896Z,1.10
2024-05-09T02:19:38.077Z,1.30
2024-05-09T02:20:47.930Z,1.30
2024-05-09T02:22:07.726Z,1.35
2024-05-09T02:23:10.054Z,1.50
2024-05-09T02:24:24.972Z,1.23
2024-05-09T02:25:31.685Z,1.10
2024-05-09T02:26:43.784Z,1.40
2024-05-09T02:27:45.848Z,1.58
2024-05-09T02:28:47.956Z,1.45
2024-05-09T02:29:50.031Z,1.43
2024-05-09T02:30:55.370Z,1.50
2024-05-09T02:32:14.838Z,1.60
2024-05-09T02:33:27.885Z,1.63
2024-05-09T02:34:30.204Z,1.50
2024-05-09T02:35:46.436Z,1.70
2024-05-09T02:37:02.279Z,1.80
2024-05-09T02:38:21.858Z,1.60
2024-05-09T02:39:29.060Z,1.48
2024-05-09T02:40:37.061Z,1.55
2024-05-09T02:41:42.076Z,1.30
2024-05-09T02:42:44.285Z,1.17
2024-05-09T02:43:46.377Z,1.70
2024-05-09T02:44:50.799Z,1.60
2024-05-09T02:45:54.087Z,1.70
2024-05-09T02:46:59.133Z,1.70
2024-05-09T02:48:01.951Z,1.83
2024-05-09T02:49:07.169Z,1.95
2024-05-09T02:51:28.228Z,1.60
2024-05-09T02:52:30.377Z,1.60
2024-05-09T02:53:32.520Z,1.43
2024-05-09T02:54:34.683Z,1.88
2024-05-09T02:55:38.503Z,1.70
2024-05-09T02:56:46.107Z,1.40
2024-05-09T02:57:56.234Z,1.95
2024-05-09T02:59:13.270Z,2.00
2024-05-09T03:00:48.227Z,1.70
2024-05-09T03:01:50.334Z,1.60
2024-05-09T03:02:52.475Z,2.05
2024-05-09T03:05:29.025Z,1.83
2024-05-09T03:06:35.097Z,1.70
2024-05-09T03:07:43.708Z,1.80
2024-05-09T03:08:46.916Z,1.92
2024-05-09T03:09:51.140Z,1.90
2024-05-09T03:10:53.186Z,1.95
2024-05-09T03:11:58.245Z,2.00
2024-05-09T03:13:09.195Z,1.55
2024-05-09T03:14:15.588Z,1.67
2024-05-09T03:15:20.407Z,1.80
2024-05-09T03:16:33.424Z,1.80
2024-05-09T03:17:42.830Z,1.90
2024-05-09T03:18:45.529Z,1.67
2024-05-09T03:19:50.627Z,1.70
2024-05-09T03:20:53.931Z,1.98
2024-05-09T03:22:06.335Z,1.73
2024-05-09T03:23:37.528Z,1.73
2024-05-09T03:24:50.010Z,2.08
2024-05-09T03:25:56.701Z,1.73
2024-05-09T03:27:07.622Z,1.70
2024-05-09T03:28:12.442Z,1.83
2024-05-09T03:29:16.752Z,1.90
2024-05-09T03:30:29.650Z,1.63
2024-05-09T03:31:39.240Z,1.60
2024-05-09T03:32:50.161Z,1.98
2024-05-09T03:33:52.465Z,1.65
2024-05-09T03:35:01.545Z,2.00
2024-05-09T03:36:48.594Z,1.60
2024-05-09T03:37:53.471Z,1.90
2024-05-09T03:39:17.487Z,1.90
2024-05-09T03:40:53.977Z,1.97
2024-05-09T03:41:55.999Z,2.00
2024-05-09T03:43:00.742Z,1.80
2024-05-09T03:44:08.663Z,1.88
2024-05-09T03:45:14.167Z,2.00
2024-05-09T03:46:16.129Z,2.03
2024-05-09T03:47:23.667Z,1.90
2024-05-09T03:48:26.081Z,1.88
2024-05-09T03:49:28.291Z,1.90
2024-05-09T03:50:35.499Z,2.10
2024-05-09T03:51:38.659Z,2.00
2024-05-09T03:52:47.130Z,1.92
2024-05-09T03:53:49.115Z,2.03
2024-05-09T03:54:51.104Z,1.55
2024-05-09T03:55:53.604Z,2.05
2024-05-09T03:56:55.685Z,1.75
2024-05-09T03:57:57.874Z,2.00
2024-05-09T03:59:00.127Z,2.08
2024-05-09T04:00:17.729Z,2.00
2024-05-09T04:01:30.439Z,2.00
2024-05-09T04:02:35.142Z,2.03
2024-05-09T04:03:37.320Z,1.90
2024-05-09T04:04:47.008Z,1.80
2024-05-09T04:05:49.030Z,2.05
2024-05-09T04:06:53.915Z,2.13
2024-05-09T04:07:58.358Z,2.00
2024-05-09T04:09:00.382Z,2.30
2024-05-09T04:10:33.332Z,2.15
2024-05-09T04:11:37.019Z,2.13
2024-05-09T04:14:07.355Z,2.43
2024-05-09T04:15:12.872Z,2.35
2024-05-09T04:16:15.527Z,2.13
2024-05-09T04:17:17.561Z,2.10
2024-05-09T04:18:19.688Z,2.58
2024-05-09T04:19:24.656Z,1.90
2024-05-09T04:20:37.287Z,2.05
2024-05-09T04:21:44.901Z,2.08
2024-05-09T04:22:51.105Z,2.33
2024-05-09T04:23:53.207Z,2.40
2024-05-09T04:24:55.288Z,2.20
2024-05-09T04:26:04.359Z,2.00
2024-05-09T04:27:08.994Z,2.10
2024-05-09T04:28:14.075Z,2.42
2024-05-09T04:29:16.081Z,2.00
2024-05-09T04:30:25.801Z,2.20
2024-05-09T04:31:38.811Z,2.28
2024-05-09T04:32:40.952Z,2.30
2024-05-09T04:33:43.240Z,2.03
2024-05-09T04:34:45.263Z,2.20
2024-05-09T04:35:49.463Z,2.37
2024-05-09T04:36:51.504Z,2.20
2024-05-09T04:37:53.520Z,2.05
2024-05-09T04:38:55.556Z,2.15
2024-05-09T04:40:00.962Z,2.50
2024-05-09T04:41:03.064Z,2.08
2024-05-09T04:42:07.277Z,2.30
2024-05-09T04:43:16.241Z,2.53
2024-05-09T04:44:20.987Z,2.40
2024-05-09T04:45:25.147Z,2.17
2024-05-09T04:46:29.246Z,2.07
2024-05-09T04:47:36.274Z,2.05
2024-05-09T04:48:38.439Z,2.40
2024-05-09T04:49:48.586Z,2.30
2024-05-09T04:50:51.615Z,3.03
2024-05-09T04:51:54.979Z,2.30
2024-05-09T04:52:58.046Z,2.38
2024-05-09T04:54:03.033Z,2.35
2024-05-09T04:55:11.203Z,2.40
2024-05-09T04:56:13.273Z,2.43
2024-05-09T04:57:17.888Z,2.10
2024-05-09T04:58:23.056Z,2.53
2024-05-09T04:59:25.260Z,2.30
2024-05-09T05:00:35.205Z,2.78
2024-05-09T05:01:39.369Z,2.65
2024-05-09T05:02:44.511Z,2.70
2024-05-09T05:03:46.851Z,2.55
2024-05-09T05:04:49.966Z,2.40
2024-05-09T05:05:52.049Z,2.20
2024-05-09T05:06:54.062Z,2.43
2024-05-09T05:07:56.085Z,2.83
2024-05-09T05:08:58.112Z,2.80
2024-05-09T05:10:00.190Z,2.30
2024-05-09T05:11:02.296Z,2.80
2024-05-09T05:12:24.679Z,2.47
2024-05-09T05:13:36.736Z,2.42
2024-05-09T05:14:40.035Z,2.75
2024-05-09T05:15:45.450Z,2.53
2024-05-09T05:16:49.741Z,2.70
2024-05-09T05:17:52.012Z,2.47
2024-05-09T05:18:59.865Z,2.67
2024-05-09T05:20:05.822Z,2.80
2024-05-09T05:21:08.087Z,2.72
2024-05-09T05:22:10.054Z,3.10
2024-05-09T05:23:17.138Z,2.40
2024-05-09T05:24:19.068Z,2.55
2024-05-09T05:25:21.014Z,2.78
2024-05-09T05:26:23.004Z,2.80
2024-05-09T05:27:25.013Z,2.53
2024-05-09T05:28:26.952Z,3.07
2024-05-09T05:29:29.014Z,3.03
2024-05-09T05:30:34.571Z,2.70
2024-05-09T05:31:37.114Z,2.80
2024-05-09T05:32:39.204Z,3.15
2024-05-09T05:33:41.578Z,2.70
2024-05-09T05:34:43.597Z,2.90
2024-05-09T05:35:45.644Z,2.70
2024-05-09T05:36:47.563Z,2.67
2024-05-09T05:37:49.542Z,2.70
2024-05-09T05:38:51.723Z,2.70
2024-05-09T05:39:53.709Z,2.50
2024-05-09T05:40:55.853Z,2.70
2024-05-09T05:41:57.911Z,2.42
2024-05-09T05:42:59.992Z,3.03
2024-05-09T05:44:01.962Z,2.60
2024-05-09T05:45:06.128Z,2.72
2024-05-09T05:46:08.674Z,2.47
2024-05-09T05:47:10.714Z,2.97
2024-05-09T05:48:14.142Z,2.60
2024-05-09T05:49:16.898Z,2.67
2024-05-09T05:50:27.311Z,2.60
2024-05-09T05:51:34.844Z,2.90
2024-05-09T05:52:36.783Z,3.20
2024-05-09T05:53:38.913Z,2.33
2024-05-09T05:54:40.858Z,2.75
2024-05-09T05:55:42.949Z,2.65
2024-05-09T05:56:44.992Z,2.75
2024-05-09T05:57:47.098Z,2.40
2024-05-09T05:58:49.334Z,2.25
2024-05-09T05:59:51.292Z,3.40
2024-05-09T06:00:53.703Z,2.33
2024-05-09T06:01:55.842Z,2.60
2024-05-09T06:02:58.034Z,2.42
2024-05-09T06:04:00.118Z,2.70
2024-05-09T06:05:02.973Z,2.65
2024-05-09T06:06:05.324Z,2.75
2024-05-09T06:07:07.357Z,2.40
2024-05-09T06:08:09.586Z,2.80
2024-05-09T06:09:11.655Z,2.50
2024-05-09T06:10:17.666Z,2.87
2024-05-09T06:11:23.894Z,2.70
2024-05-09T06:12:26.005Z,2.50
2024-05-09T06:13:27.990Z,2.70
2024-05-09T06:14:30.054Z,2.55
2024-05-09T06:15:32.154Z,2.80
2024-05-09T06:16:34.101Z,2.42
2024-05-09T06:17:36.211Z,2.58
2024-05-09T06:18:38.271Z,2.70
2024-05-09T06:19:40.333Z,2.88
2024-05-09T06:20:45.660Z,2.20
2024-05-09T06:21:47.759Z,2.67
2024-05-09T06:22:49.694Z,2.50
2024-05-09T06:23:53.408Z,2.60
2024-05-09T06:24:55.366Z,2.40
2024-05-09T06:25:57.386Z,2.75
2024-05-09T06:26:59.452Z,2.25
2024-05-09T06:28:01.953Z,2.60
2024-05-09T06:29:04.071Z,2.38
2024-05-09T06:30:09.895Z,2.22
2024-05-09T06:31:12.532Z,2.60
2024-05-09T06:32:15.620Z,2.23
2024-05-09T06:33:17.916Z,2.53
2024-05-09T06:34:20.412Z,2.00
2024-05-09T06:35:22.605Z,2.28
2024-05-09T06:36:24.525Z,2.45
2024-05-09T06:37:26.443Z,2.40
2024-05-09T06:38:31.360Z,2.95
2024-05-09T06:39:33.305Z,2.38
2024-05-09T06:40:38.532Z,3.10
2024-05-09T06:41:42.196Z,2.20
2024-05-09T06:42:44.257Z,2.20
2024-05-09T06:43:46.246Z,2.10
2024-05-09T06:44:48.231Z,2.38
2024-05-09T06:45:53.032Z,2.40
2024-05-09T06:46:58.109Z,2.00
2024-05-09T06:48:01.101Z,2.00
2024-05-09T06:49:08.166Z,2.40
2024-05-09T06:50:19.618Z,2.08
2024-05-09T06:51:25.451Z,2.47
2024-05-09T06:52:27.447Z,1.92
2024-05-09T06:53:29.504Z,2.20
2024-05-09T06:54:31.572Z,1.98
2024-05-09T06:55:33.830Z,2.10
2024-05-09T06:56:36.336Z,2.47
2024-05-09T06:57:40.565Z,1.92
2024-05-09T06:58:44.351Z,2.15
2024-05-09T06:59:46.251Z,2.15
2024-05-09T07:00:48.294Z,2.30
2024-05-09T07:01:57.998Z,1.80
2024-05-09T07:03:01.721Z,2.40
2024-05-09T07:04:06.663Z,1.97
2024-05-09T07:05:08.946Z,2.20
2024-05-09T07:06:11.136Z,2.30
2024-05-09T07:07:13.232Z,2.05
2024-05-09T07:08:15.424Z,2.30
2024-05-09T07:09:17.508Z,2.30
2024-05-09T07:10:28.352Z,1.90
2024-05-09T07:11:34.845Z,2.10
2024-05-09T07:12:36.911Z,1.75
2024-05-09T07:13:38.988Z,2.35
2024-05-09T07:14:41.031Z,2.10
2024-05-09T07:15:43.387Z,1.90
2024-05-09T07:16:45.469Z,1.88
2024-05-09T07:17:47.739Z,2.00
2024-05-09T07:18:55.072Z,1.90
2024-05-09T07:19:57.338Z,2.38
2024-05-09T07:20:59.372Z,2.10
2024-05-09T07:22:02.108Z,2.00
2024-05-09T07:23:04.257Z,2.00
2024-05-09T07:24:06.394Z,1.85
2024-05-09T07:25:08.452Z,1.83
2024-05-09T07:26:10.459Z,2.08
2024-05-09T07:27:12.657Z,2.00
2024-05-09T07:28:16.185Z,2.00
2024-05-09T07:29:18.326Z,2.13
2024-05-09T07:30:27.654Z,1.95
2024-05-09T07:31:35.077Z,2.00
2024-05-09T07:32:37.104Z,1.70
2024-05-09T07:33:39.353Z,1.98
2024-05-09T07:34:41.520Z,2.00
2024-05-09T07:35:43.726Z,1.67
2024-05-09T07:36:46.407Z,2.10
2024-05-09T07:37:50.101Z,1.92
2024-05-09T07:38:52.231Z,1.90
2024-05-09T07:39:54.286Z,2.03
2024-05-09T07:40:56.358Z,2.08
2024-05-09T07:41:58.380Z,1.80
2024-05-09T07:43:00.293Z,1.60
2024-05-09T07:44:03.372Z,1.67
2024-05-09T07:45:21.567Z,1.92
2024-05-09T07:47:36.829Z,1.80
2024-05-09T07:49:13.677Z,1.80
2024-05-09T07:50:53.507Z,2.10
2024-05-09T07:52:32.499Z,1.70
2024-05-09T07:53:22.051Z,1.90
2024-05-09T07:53:38.962Z,1.73
2024-05-09T07:54:47.707Z,1.80
2024-05-09T07:55:49.930Z,1.80
2024-05-09T07:56:52.421Z,1.80
2024-05-09T07:57:54.612Z,1.60
2024-05-09T07:58:56.767Z,1.93
2024-05-09T07:59:58.840Z,1.58
2024-05-09T08:01:02.755Z,1.52
2024-05-09T08:02:06.058Z,1.45
2024-05-09T08:03:08.696Z,1.40
2024-05-09T08:04:10.940Z,1.30
2024-05-09T08:05:13.227Z,1.20
2024-05-09T08:06:15.479Z,1.60
2024-05-09T08:07:19.033Z,1.20
2024-05-09T08:08:21.712Z,1.60
2024-05-09T08:09:23.795Z,1.40
2024-05-09T08:10:28.998Z,1.20
2024-05-09T08:11:32.570Z,1.40
2024-05-09T08:12:35.015Z,1.42
2024-05-09T08:13:37.442Z,1.67
2024-05-09T08:14:39.637Z,1.38
2024-05-09T08:15:41.870Z,1.30
2024-05-09T08:16:43.907Z,1.13
2024-05-09T08:17:46.009Z,1.40
2024-05-09T08:18:48.120Z,1.55
2024-05-09T08:19:50.218Z,1.40
2024-05-09T08:20:52.169Z,1.45
2024-05-09T08:21:54.915Z,1.27
2024-05-09T08:22:56.992Z,1.20
2024-05-09T08:23:59.058Z,1.40
2024-05-09T08:25:01.086Z,1.52
2024-05-09T08:26:03.126Z,1.42
2024-05-09T08:27:05.416Z,1.35
2024-05-09T08:28:07.558Z,1.13
2024-05-09T08:29:10.244Z,1.30
2024-05-09T08:30:21.331Z,1.20
2024-05-09T08:31:27.766Z,1.40
2024-05-09T08:32:32.429Z,1.40
2024-05-09T08:33:37.628Z,1.20
2024-05-09T08:34:40.681Z,1.40
2024-05-09T08:35:42.675Z,1.50
2024-05-09T08:36:44.700Z,1.33
2024-05-09T08:37:50.327Z,1.50
2024-05-09T08:38:52.441Z,1.40
2024-05-09T08:39:54.624Z,1.30
2024-05-09T08:40:56.928Z,1.20
2024-05-09T08:42:01.635Z,1.15
2024-05-09T08:43:11.251Z,1.10
2024-05-09T08:44:14.635Z,1.50
2024-05-09T08:45:17.579Z,1.40
2024-05-09T08:46:19.724Z,1.25
2024-05-09T08:47:21.910Z,1.23
2024-05-09T08:48:25.349Z,1.38
2024-05-09T08:49:27.677Z,1.35
2024-05-09T08:50:36.575Z,1.33
2024-05-09T08:51:41.253Z,1.13
2024-05-09T08:52:43.545Z,1.13
2024-05-09T08:53:45.774Z,1.17
2024-05-09T08:54:47.841Z,1.30
2024-05-09T08:55:51.569Z,1.20
2024-05-09T08:56:53.787Z,1.13
2024-05-09T08:57:56.278Z,1.33
2024-05-09T08:59:04.548Z,1.33
2024-05-09T09:00:12.520Z,1.00
2024-05-09T09:01:19.061Z,1.13
2024-05-09T09:02:22.981Z,1.10
2024-05-09T09:03:28.114Z,1.30
2024-05-09T09:04:33.479Z,1.23
2024-05-09T09:05:39.561Z,1.15
2024-05-09T09:06:43.209Z,1.23
2024-05-09T09:07:48.451Z,1.10
2024-05-09T09:08:54.206Z,1.00
2024-05-09T09:09:57.155Z,1.25
2024-05-09T09:10:59.797Z,1.20
2024-05-09T09:12:02.189Z,1.20
2024-05-09T09:13:05.435Z,0.90
2024-05-09T09:14:07.620Z,1.00
2024-05-09T09:15:09.706Z,1.00
2024-05-09T09:16:12.987Z,1.30
2024-05-09T09:17:16.085Z,1.10
2024-05-09T09:18:19.281Z,1.30
2024-05-09T09:19:23.409Z,1.05
2024-05-09T09:20:34.076Z,1.60
2024-05-09T09:21:38.800Z,1.17
2024-05-09T09:22:40.852Z,1.33
2024-05-09T09:23:43.774Z,1.33
2024-05-09T09:24:46.043Z,1.02
2024-05-09T09:25:48.432Z,0.93
2024-05-09T09:26:50.777Z,0.93
2024-05-09T09:27:52.770Z,1.30
2024-05-09T09:29:01.504Z,0.90
2024-05-09T09:30:05.627Z,0.98
2024-05-09T09:31:09.005Z,0.90
2024-05-09T09:32:11.939Z,0.90
2024-05-09T09:33:14.224Z,1.00
2024-05-09T09:34:16.514Z,1.00
2024-05-09T09:35:18.724Z,1.05
2024-05-09T09:36:20.731Z,1.10
2024-05-09T09:37:28.403Z,1.05
2024-05-09T09:38:32.510Z,1.00
2024-05-09T09:39:36.218Z,0.93
2024-05-09T09:40:46.780Z,0.90
2024-05-09T09:41:52.155Z,1.17
2024-05-09T09:42:58.313Z,0.90
2024-05-09T09:44:02.919Z,1.02
2024-05-09T09:45:05.992Z,1.00
2024-05-09T09:46:12.309Z,0.90
2024-05-09T09:47:16.742Z,0.90
2024-05-09T09:48:21.387Z,1.40
2024-05-09T09:49:43.942Z,0.77
2024-05-09T09:50:46.597Z,0.70
2024-05-09T09:51:49.491Z,1.20
2024-05-09T09:52:52.711Z,1.10
2024-05-09T09:53:55.929Z,1.02
2024-05-09T09:54:59.500Z,0.80
2024-05-09T09:56:03.393Z,0.90
2024-05-09T09:57:08.826Z,0.90
2024-05-09T09:58:14.296Z,5.65
2024-05-09T09:59:17.513Z,1.52
2024-05-09T10:00:27.241Z,8.40
2024-05-09T10:01:37.363Z,1.30
2024-05-09T10:02:40.324Z,0.90
2024-05-09T10:03:42.771Z,0.90
2024-05-09T10:04:44.956Z,0.80
2024-05-09T10:05:47.602Z,0.85
2024-05-09T10:06:54.932Z,1.00
2024-05-09T10:07:58.971Z,0.98
2024-05-09T10:09:01.701Z,0.88
2024-05-09T10:10:07.094Z,0.95
2024-05-09T10:11:09.569Z,1.10
2024-05-09T10:12:14.524Z,0.82
2024-05-09T10:13:16.738Z,1.10
2024-05-09T10:14:22.362Z,1.00
2024-05-09T10:15:24.343Z,0.70
2024-05-09T10:16:31.342Z,1.00
2024-05-09T10:17:34.124Z,0.70
2024-05-09T10:20:14.405Z,0.90
2024-05-09T10:21:23.225Z,0.90
2024-05-09T10:22:28.764Z,0.90
2024-05-09T10:23:33.475Z,0.90
2024-05-09T10:25:05.516Z,0.70
2024-05-09T10:26:08.174Z,0.82
2024-05-09T10:27:10.281Z,0.90
2024-05-09T10:28:12.727Z,1.13
2024-05-09T10:29:16.395Z,0.90
2024-05-09T10:31:32.531Z,0.70
2024-05-09T10:32:39.874Z,0.70
2024-05-09T10:33:50.949Z,0.90
2024-05-09T10:35:00.894Z,0.90
2024-05-09T10:36:19.244Z,0.93
2024-05-09T10:37:22.732Z,1.13
2024-05-09T10:38:25.196Z,1.02
2024-05-09T10:39:27.408Z,0.90
2024-05-09T10:40:31.749Z,0.80
2024-05-09T10:41:34.273Z,0.90
2024-05-09T10:42:41.779Z,0.82
2024-05-09T10:43:43.842Z,1.10
2024-05-09T10:44:47.186Z,0.90
2024-05-09T10:45:49.400Z,0.98
2024-05-09T10:46:53.757Z,1.10
2024-05-09T10:47:56.382Z,1.00
2024-05-09T10:48:59.647Z,0.90
2024-05-09T10:50:06.078Z,0.88
2024-05-09T10:51:13.367Z,0.70
2024-05-09T10:52:20.240Z,1.00
2024-05-09T10:53:23.150Z,1.00
2024-05-09T10:54:35.033Z,1.07
2024-05-09T10:55:37.064Z,0.90
2024-05-09T10:56:39.063Z,1.00
2024-05-09T10:57:41.284Z,0.82
2024-05-09T10:58:43.465Z,0.80
2024-05-09T10:59:46.176Z,1.10
2024-05-09T11:00:49.158Z,1.10
2024-05-09T11:01:51.363Z,1.00
2024-05-09T11:02:53.690Z,0.77
2024-05-09T11:03:57.108Z,0.80
2024-05-09T11:04:59.492Z,0.80
2024-05-09T11:06:01.725Z,1.10
2024-05-09T11:07:08.799Z,1.00
2024-05-09T11:08:11.791Z,0.95
2024-05-09T11:09:14.842Z,0.82
2024-05-09T11:10:24.443Z,0.90
2024-05-09T11:11:29.910Z,1.10
2024-05-09T11:12:32.149Z,1.10
2024-05-09T11:13:35.948Z,0.90
2024-05-09T11:14:38.308Z,1.20
2024-05-09T11:15:43.392Z,0.90
2024-05-09T11:16:45.428Z,0.80
2024-05-09T11:17:49.989Z,1.00
2024-05-09T11:18:57.501Z,1.00
2024-05-09T11:20:00.671Z,0.93
2024-05-09T11:21:02.873Z,1.00
2024-05-09T11:22:05.375Z,1.15
2024-05-09T11:23:07.814Z,1.75
2024-05-09T11:24:11.525Z,1.00
2024-05-09T11:25:14.123Z,0.82
2024-05-09T11:26:19.368Z,1.10
2024-05-09T11:27:22.184Z,0.80
2024-05-09T11:28:26.122Z,0.85
2024-05-09T11:29:44.819Z,0.77
2024-05-09T11:30:47.636Z,0.82
2024-05-09T11:31:49.687Z,0.80
2024-05-09T11:32:53.187Z,0.90
2024-05-09T11:33:55.505Z,0.98
2024-05-09T11:34:57.480Z,1.10
2024-05-09T11:35:59.582Z,0.90
2024-05-09T11:37:04.950Z,0.90
2024-05-09T11:38:07.273Z,0.90
2024-05-09T11:39:09.805Z,1.05
2024-05-09T11:40:20.750Z,1.10
2024-05-09T11:41:27.320Z,1.05
2024-05-09T11:42:29.265Z,0.88
2024-05-09T11:43:31.535Z,0.70
2024-05-09T11:44:33.841Z,0.85
2024-05-09T11:45:35.885Z,0.90
2024-05-09T11:46:37.978Z,1.00
2024-05-09T11:47:40.202Z,1.17
2024-05-09T11:48:42.528Z,0.93
2024-05-09T11:49:45.232Z,0.90
2024-05-09T11:50:47.236Z,0.90
2024-05-09T11:51:49.316Z,1.20
2024-05-09T11:52:51.602Z,0.90
2024-05-09T11:53:53.583Z,0.90
2024-05-09T11:54:55.552Z,0.90
2024-05-09T11:55:59.404Z,0.90
2024-05-09T11:57:01.437Z,0.98
2024-05-09T11:58:04.457Z,0.80
2024-05-09T11:59:06.456Z,0.82
2024-05-09T12:00:11.883Z,0.90
2024-05-09T12:01:17.336Z,0.90
2024-05-09T12:02:19.570Z,1.00
2024-05-09T12:03:21.856Z,0.80
2024-05-09T12:04:24.262Z,0.93
2024-05-09T12:05:27.383Z,0.70
2024-05-09T12:06:29.724Z,1.00
2024-05-09T12:07:32.188Z,0.80
2024-05-09T12:08:34.324Z,0.90
2024-05-09T12:09:36.629Z,0.90
2024-05-09T12:10:39.171Z,0.80
2024-05-09T12:11:41.255Z,0.80
2024-05-09T12:12:43.350Z,0.88
2024-05-09T12:13:45.482Z,0.93
2024-05-09T12:14:47.585Z,0.90
2024-05-09T12:15:49.692Z,0.90
2024-05-09T12:16:51.747Z,0.70
2024-05-09T12:17:54.651Z,1.00
2024-05-09T12:18:57.924Z,0.87
2024-05-09T12:20:00.290Z,0.90
2024-05-09T12:21:02.489Z,0.90
2024-05-09T12:22:04.819Z,1.00
2024-05-09T12:23:09.431Z,0.90
2024-05-09T12:24:15.260Z,0.90
2024-05-09T12:25:19.345Z,0.88
2024-05-09T12:26:21.602Z,0.82
2024-05-09T12:27:23.624Z,0.88
2024-05-09T12:28:26.610Z,0.95
2024-05-09T12:29:28.814Z,0.80
2024-05-09T12:30:36.720Z,0.73
2024-05-09T12:31:41.715Z,0.80
2024-05-09T12:32:44.333Z,0.90
2024-05-09T12:33:46.650Z,1.10
2024-05-09T12:34:51.466Z,0.88
2024-05-09T12:35:53.937Z,1.08
2024-05-09T12:36:56.157Z,0.90
2024-05-09T12:37:58.181Z,0.90
2024-05-09T12:39:01.127Z,0.90
2024-05-09T12:40:04.920Z,0.77
2024-05-09T12:41:07.274Z,0.88
2024-05-09T12:42:10.952Z,0.82
2024-05-09T12:43:14.831Z,0.80
2024-05-09T12:44:16.902Z,1.05
2024-05-09T12:45:19.324Z,0.88
2024-05-09T12:46:23.391Z,0.90
2024-05-09T12:47:25.780Z,0.80
2024-05-09T12:48:28.416Z,0.95
2024-05-09T12:49:30.619Z,0.90
2024-05-09T12:50:34.526Z,0.70
2024-05-09T12:51:40.562Z,0.90
2024-05-09T12:52:42.524Z,1.05
2024-05-09T12:53:44.727Z,0.90
2024-05-09T12:54:46.958Z,0.80
2024-05-09T12:55:56.562Z,1.00
2024-05-09T12:57:02.249Z,1.13
2024-05-09T12:58:04.646Z,0.70
2024-05-09T12:59:06.857Z,0.90
2024-05-09T13:00:14.248Z,1.05
2024-05-09T13:01:22.710Z,0.80
2024-05-09T13:02:24.880Z,0.75
2024-05-09T13:03:27.024Z,0.80
2024-05-09T13:04:29.230Z,0.90
2024-05-09T13:05:32.153Z,0.85
2024-05-09T13:06:34.522Z,0.82
2024-05-09T13:07:39.098Z,0.70
2024-05-09T13:08:41.095Z,0.70
2024-05-09T13:09:43.107Z,0.80
2024-05-09T13:10:45.226Z,0.73
2024-05-09T13:11:47.259Z,0.90
2024-05-09T13:12:49.415Z,0.80
2024-05-09T13:13:51.499Z,0.90
2024-05-09T13:14:53.500Z,0.93
2024-05-09T13:15:55.569Z,0.93
2024-05-09T13:16:57.623Z,1.05
2024-05-09T13:18:02.730Z,0.88
2024-05-09T13:19:05.730Z,0.70
2024-05-09T13:20:12.003Z,0.80
2024-05-09T13:21:20.508Z,0.98
2024-05-09T13:22:22.452Z,0.80
2024-05-09T13:23:24.387Z,1.10
2024-05-09T13:24:26.403Z,0.80
2024-05-09T13:25:28.342Z,0.98
2024-05-09T13:26:30.324Z,1.02
2024-05-09T13:27:32.322Z,0.80
2024-05-09T13:28:34.485Z,0.80
2024-05-09T13:29:36.608Z,0.80
2024-05-09T13:30:41.360Z,1.65
2024-05-09T13:31:44.378Z,1.10
2024-05-09T13:32:46.445Z,1.00
2024-05-09T13:33:48.641Z,0.95
2024-05-09T13:34:50.792Z,1.05
2024-05-09T13:35:52.831Z,1.02
2024-05-09T13:36:54.835Z,1.00
2024-05-09T13:37:56.845Z,1.00
2024-05-09T13:38:59.337Z,0.80
2024-05-09T13:40:01.698Z,0.90
2024-05-09T13:41:03.988Z,0.80
2024-05-09T13:42:06.150Z,0.80
2024-05-09T13:43:08.180Z,1.00
2024-05-09T13:44:10.181Z,1.00
2024-05-09T13:45:12.243Z,0.80
2024-05-09T13:46:14.395Z,0.85
2024-05-09T13:47:16.708Z,1.10
2024-05-09T13:48:19.751Z,0.90
2024-05-09T13:49:21.936Z,0.80
2024-05-09T13:50:31.582Z,0.90
2024-05-09T13:51:37.996Z,0.80
2024-05-09T13:52:40.244Z,0.80
2024-05-09T13:53:42.171Z,0.70
2024-05-09T13:54:44.129Z,0.98
2024-05-09T13:55:46.279Z,0.90
2024-05-09T13:56:48.385Z,0.77
2024-05-09T13:57:50.478Z,1.00
2024-05-09T13:58:52.556Z,0.82
2024-05-09T13:59:54.537Z,0.93
2024-05-09T14:00:56.576Z,0.65
2024-05-09T14:01:58.970Z,0.80
2024-05-09T14:03:01.086Z,0.93
2024-05-09T14:04:03.271Z,0.60
2024-05-09T14:05:05.869Z,0.95
2024-05-09T14:06:11.309Z,0.80
2024-05-09T14:07:15.007Z,0.88
2024-05-09T14:08:19.487Z,0.85
2024-05-09T14:09:21.638Z,0.82
2024-05-09T14:10:28.866Z,1.10
2024-05-09T14:11:33.232Z,0.80
2024-05-09T14:12:35.326Z,0.77
2024-05-09T14:13:37.477Z,0.82
2024-05-09T14:14:39.469Z,0.90
2024-05-09T14:15:41.631Z,1.40
2024-05-09T14:16:43.878Z,0.80
2024-05-09T14:17:46.739Z,0.93
2024-05-09T14:18:49.204Z,0.88
2024-05-09T14:19:51.260Z,0.70
2024-05-09T14:20:53.259Z,0.90
2024-05-09T14:21:55.250Z,0.88
2024-05-09T14:22:57.241Z,0.70
2024-05-09T14:24:01.170Z,0.90
2024-05-09T14:25:03.283Z,1.00
2024-05-09T14:26:05.371Z,0.70
2024-05-09T14:27:07.303Z,1.00
2024-05-09T14:28:09.992Z,0.70
2024-05-09T14:29:11.994Z,0.80
2024-05-09T14:30:22.202Z,0.82
2024-05-09T14:31:28.353Z,0.60
2024-05-09T14:32:30.498Z,0.80
2024-05-09T14:33:32.957Z,1.00
2024-05-09T14:34:35.019Z,0.82
2024-05-09T14:35:38.774Z,0.90
2024-05-09T14:36:41.316Z,0.98
2024-05-09T14:37:43.282Z,0.73
2024-05-09T14:38:45.283Z,1.00
2024-05-09T14:39:47.232Z,1.00